Terminal Aerodrome Forecast
Issued by NWS

Home | Current Version | Previous Version | Text Only | Print | Product List | Glossary On
Versions: 1 2 3 4 5 6 7 8 9 10 11 12 13 14
404
FTUS43 KIND 272320
TAFHUF
TAF
KHUF 272320Z 2800/2824 14006KT P6SM BKN040
     FM280700 15009KT P6SM VCSH BKN050
     FM280900 16009KT 6SM -SHRA BKN025
     FM281100 17009KT P6SM -SHRA OVC008
     FM281400 18009KT P6SM VCSH OVC008
     FM281600 18010G22KT P6SM VCSH OVC015
     FM281800 19011G22KT P6SM OVC008=

USA.gov is the U.S. government's official web portal to all federal, state and local government web resources and services.